Hoback Junction, Wyoming
Current Conditions -  °F | °C
As of 12:15 AM on Sunday 26 Oct 2014 (Local Time) from KJAC Reporting Station
Overcast Overcast  
Wind Chill: 13°   Ceiling: 7500
Heat Index: 13°   Visibility: 10mi
Dew Point:   Wind: 15mph
Humidity: 47%   Direction: 180°S
Pressure: 29.85"   Gusts: 25mph
Location:  43.4143°N, 110.582°W
Report Text: KJAC 260615Z AUTO 18013G22KT 10SM FEW065 BKN075 OVC100 13/02 A2985 RMK AO1 LTG DSNT NE
Loading
Personal Weather Stations






























Interactive Weather Map
Tropical Storm Tracking
New forecast layout! Learn more

10-Day Weather Forecast

Advertisements
Track Severe Weather on mobile